sensor_id;sensor_type;location;lat;lon;timestamp;temperature;humidity
7498;DHT22;3790;48.806;9.140;2023-04-01T00:02:59;7.70;99.90
7498;DHT22;3790;48.806;9.140;2023-04-01T00:08:00;7.70;99.90
7498;DHT22;3790;48.806;9.140;2023-04-01T00:13:01;7.70;99.90
7498;DHT22;3790;48.806;9.140;2023-04-01T00:18:01;7.90;99.90
7498;DHT22;3790;48.806;9.140;2023-04-01T00:23:02;8.00;99.90
7498;DHT22;3790;48.806;9.140;2023-04-01T00:28:03;8.10;99.90
7498;DHT22;3790;48.806;9.140;2023-04-01T00:33:06;8.00;99.90
7498;DHT22;3790;48.806;9.140;2023-04-01T00:38:07;7.90;99.90
7498;DHT22;3790;48.806;9.140;2023-04-01T00:43:18;7.90;99.90
7498;DHT22;3790;48.806;9.140;2023-04-01T00:48:22;7.90;99.90
7498;DHT22;3790;48.806;9.140;2023-04-01T00:53:23;8.10;99.90
7498;DHT22;3790;48.806;9.140;2023-04-01T00:58:26;8.00;99.90
7498;DHT22;3790;48.806;9.140;2023-04-01T01:03:28;7.90;99.90
7498;DHT22;3790;48.806;9.140;2023-04-01T01:35:53;7.80;99.90
7498;DHT22;3790;48.806;9.140;2023-04-01T01:40:57;7.80;99.90
7498;DHT22;3790;48.806;9.140;2023-04-01T01:46:03;7.90;99.90
7498;DHT22;3790;48.806;9.140;2023-04-01T01:51:06;7.80;99.90
7498;DHT22;3790;48.806;9.140;2023-04-01T01:56:07;7.70;99.90
7498;DHT22;3790;48.806;9.140;2023-04-01T02:01:24;7.70;99.90
7498;DHT22;3790;48.806;9.140;2023-04-01T02:06:29;7.60;99.90
7498;DHT22;3790;48.806;9.140;2023-04-01T02:11:46;7.50;99.90
7498;DHT22;3790;48.806;9.140;2023-04-01T02:17:09;7.50;99.90
7498;DHT22;3790;48.806;9.140;2023-04-01T02:22:13;7.40;99.90
7498;DHT22;3790;48.806;9.140;2023-04-01T02:27:17;7.40;99.90
7498;DHT22;3790;48.806;9.140;2023-04-01T02:32:19;7.40;99.90
7498;DHT22;3790;48.806;9.140;2023-04-01T02:37:20;7.40;99.90
7498;DHT22;3790;48.806;9.140;2023-04-01T02:42:21;7.30;99.90
7498;DHT22;3790;48.806;9.140;2023-04-01T02:47:21;7.20;99.90
7498;DHT22;3790;48.806;9.140;2023-04-01T02:52:22;7.10;99.90
7498;DHT22;3790;48.806;9.140;2023-04-01T02:57:23;7.10;99.90
7498;DHT22;3790;48.806;9.140;2023-04-01T03:02:24;7.10;99.90
7498;DHT22;3790;48.806;9.140;2023-04-01T03:07:24;7.10;99.90
7498;DHT22;3790;48.806;9.140;2023-04-01T03:12:25;7.10;99.90
7498;DHT22;3790;48.806;9.140;2023-04-01T03:17:25;7.10;99.90
7498;DHT22;3790;48.806;9.140;2023-04-01T03:22:26;7.20;99.90
7498;DHT22;3790;48.806;9.140;2023-04-01T03:27:27;7.10;99.90
7498;DHT22;3790;48.806;9.140;2023-04-01T03:32:27;7.00;99.90
7498;DHT22;3790;48.806;9.140;2023-04-01T03:37:28;7.00;99.90
7498;DHT22;3790;48.806;9.140;2023-04-01T03:42:30;7.00;99.90
7498;DHT22;3790;48.806;9.140;2023-04-01T03:47:31;7.00;99.90
7498;DHT22;3790;48.806;9.140;2023-04-01T03:52:32;7.00;99.90
7498;DHT22;3790;48.806;9.140;2023-04-01T03:57:33;7.00;99.90
7498;DHT22;3790;48.806;9.140;2023-04-01T04:02:34;6.90;99.90
7498;DHT22;3790;48.806;9.140;2023-04-01T04:07:35;6.80;99.90
7498;DHT22;3790;48.806;9.140;2023-04-01T04:12:35;6.80;99.90
7498;DHT22;3790;48.806;9.140;2023-04-01T04:17:36;7.30;99.90
7498;DHT22;3790;48.806;9.140;2023-04-01T04:22:37;7.30;99.90
7498;DHT22;3790;48.806;9.140;2023-04-01T04:27:37;7.40;99.90
7498;DHT22;3790;48.806;9.140;2023-04-01T04:32:40;7.30;99.90
7498;DHT22;3790;48.806;9.140;2023-04-01T04:37:42;7.20;99.90
7498;DHT22;3790;48.806;9.140;2023-04-01T04:42:42;7.10;99.90
7498;DHT22;3790;48.806;9.140;2023-04-01T04:47:43;7.10;99.90
7498;DHT22;3790;48.806;9.140;2023-04-01T04:52:43;7.10;99.90
7498;DHT22;3790;48.806;9.140;2023-04-01T04:57:44;7.00;99.90
7498;DHT22;3790;48.806;9.140;2023-04-01T05:02:45;7.10;99.90
7498;DHT22;3790;48.806;9.140;2023-04-01T05:07:46;7.00;99.90
7498;DHT22;3790;48.806;9.140;2023-04-01T05:12:46;6.90;99.90
7498;DHT22;3790;48.806;9.140;2023-04-01T05:17:47;6.90;99.90
7498;DHT22;3790;48.806;9.140;2023-04-01T05:22:47;6.90;99.90
7498;DHT22;3790;48.806;9.140;2023-04-01T05:27:48;6.90;99.90
7498;DHT22;3790;48.806;9.140;2023-04-01T05:32:48;6.90;99.90
7498;DHT22;3790;48.806;9.140;2023-04-01T05:37:49;7.20;99.90
7498;DHT22;3790;48.806;9.140;2023-04-01T05:42:49;7.50;99.90
7498;DHT22;3790;48.806;9.140;2023-04-01T05:47:50;7.60;99.90
7498;DHT22;3790;48.806;9.140;2023-04-01T05:52:51;7.70;99.90
7498;DHT22;3790;48.806;9.140;2023-04-01T05:57:51;7.80;99.90
7498;DHT22;3790;48.806;9.140;2023-04-01T06:02:52;8.10;99.90
7498;DHT22;3790;48.806;9.140;2023-04-01T06:08:01;8.40;99.90
7498;DHT22;3790;48.806;9.140;2023-04-01T06:34:39;9.30;99.90
7498;DHT22;3790;48.806;9.140;2023-04-01T06:40:15;9.40;99.90
7498;DHT22;3790;48.806;9.140;2023-04-01T06:45:31;9.50;99.90
7498;DHT22;3790;48.806;9.140;2023-04-01T06:56:06;9.40;99.90
7498;DHT22;3790;48.806;9.140;2023-04-01T07:01:14;9.20;99.90
7498;DHT22;3790;48.806;9.140;2023-04-01T07:06:35;9.40;99.90
7498;DHT22;3790;48.806;9.140;2023-04-01T07:11:38;9.40;99.90
7498;DHT22;3790;48.806;9.140;2023-04-01T07:16:43;9.50;99.90
7498;DHT22;3790;48.806;9.140;2023-04-01T07:21:52;9.70;99.90
7498;DHT22;3790;48.806;9.140;2023-04-01T07:26:56;9.80;99.90
7498;DHT22;3790;48.806;9.140;2023-04-01T07:48:04;9.60;99.90
7498;DHT22;3790;48.806;9.140;2023-04-01T07:53:22;9.80;99.90
7498;DHT22;3790;48.806;9.140;2023-04-01T08:24:46;10.70;99.90
7498;DHT22;3790;48.806;9.140;2023-04-01T08:45:44;9.40;99.90
7498;DHT22;3790;48.806;9.140;2023-04-01T08:56:20;8.50;99.90
7498;DHT22;3790;48.806;9.140;2023-04-01T09:07:08;8.60;99.90
7498;DHT22;3790;48.806;9.140;2023-04-01T09:12:36;8.90;99.90
7498;DHT22;3790;48.806;9.140;2023-04-01T09:18:12;8.80;99.90
7498;DHT22;3790;48.806;9.140;2023-04-01T09:45:14;9.70;99.90
7498;DHT22;3790;48.806;9.140;2023-04-01T09:50:34;9.40;99.90
7498;DHT22;3790;48.806;9.140;2023-04-01T10:01:34;9.20;99.90
7498;DHT22;3790;48.806;9.140;2023-04-01T10:23:30;10.90;99.90
7498;DHT22;3790;48.806;9.140;2023-04-01T10:56:11;10.90;99.90
7498;DHT22;3790;48.806;9.140;2023-04-01T11:01:49;10.70;99.90
7498;DHT22;3790;48.806;9.140;2023-04-01T11:07:24;10.10;99.90
7498;DHT22;3790;48.806;9.140;2023-04-01T11:23:22;12.80;99.90
7498;DHT22;3790;48.806;9.140;2023-04-01T11:34:05;12.70;99.90
7498;DHT22;3790;48.806;9.140;2023-04-01T11:39:25;13.10;99.90
7498;DHT22;3790;48.806;9.140;2023-04-01T11:44:32;13.30;99.90
7498;DHT22;3790;48.806;9.140;2023-04-01T11:49:48;13.20;99.90
7498;DHT22;3790;48.806;9.140;2023-04-01T12:10:40;12.10;99.90
7498;DHT22;3790;48.806;9.140;2023-04-01T12:16:24;11.60;99.90
7498;DHT22;3790;48.806;9.140;2023-04-01T12:22:06;11.50;99.90
7498;DHT22;3790;48.806;9.140;2023-04-01T12:32:47;10.20;99.90
7498;DHT22;3790;48.806;9.140;2023-04-01T13:00:30;12.20;99.90
7498;DHT22;3790;48.806;9.140;2023-04-01T13:05:55;12.40;99.90
7498;DHT22;3790;48.806;9.140;2023-04-01T13:16:28;11.80;99.90
7498;DHT22;3790;48.806;9.140;2023-04-01T13:27:17;12.10;99.90
7498;DHT22;3790;48.806;9.140;2023-04-01T13:48:27;12.70;99.90
7498;DHT22;3790;48.806;9.140;2023-04-01T14:09:43;12.00;99.90
7498;DHT22;3790;48.806;9.140;2023-04-01T14:15:05;11.70;99.90
7498;DHT22;3790;48.806;9.140;2023-04-01T14:25:58;11.10;99.90
7498;DHT22;3790;48.806;9.140;2023-04-01T14:52:29;9.70;99.90
7498;DHT22;3790;48.806;9.140;2023-04-01T14:57:32;10.00;99.90
7498;DHT22;3790;48.806;9.140;2023-04-01T15:02:38;10.40;99.90
7498;DHT22;3790;48.806;9.140;2023-04-01T15:08:10;11.00;99.90
7498;DHT22;3790;48.806;9.140;2023-04-01T15:18:44;11.20;99.90
7498;DHT22;3790;48.806;9.140;2023-04-01T15:23:54;11.40;99.90
7498;DHT22;3790;48.806;9.140;2023-04-01T15:39:49;11.50;99.90
7498;DHT22;3790;48.806;9.140;2023-04-01T15:45:25;11.20;99.90
7498;DHT22;3790;48.806;9.140;2023-04-01T16:12:04;10.90;99.90
7498;DHT22;3790;48.806;9.140;2023-04-01T16:33:52;10.60;99.90
7498;DHT22;3790;48.806;9.140;2023-04-01T16:39:33;10.60;99.90
7498;DHT22;3790;48.806;9.140;2023-04-01T16:56:02;10.60;99.90
7498;DHT22;3790;48.806;9.140;2023-04-01T17:01:28;11.00;99.90
7498;DHT22;3790;48.806;9.140;2023-04-01T17:11:49;10.70;99.90
7498;DHT22;3790;48.806;9.140;2023-04-01T17:17:23;10.60;99.90
7498;DHT22;3790;48.806;9.140;2023-04-01T17:28:20;10.50;99.90
7498;DHT22;3790;48.806;9.140;2023-04-01T17:39:00;10.50;99.90
7498;DHT22;3790;48.806;9.140;2023-04-01T17:49:34;10.50;99.90
7498;DHT22;3790;48.806;9.140;2023-04-01T17:54:49;10.30;99.90
7498;DHT22;3790;48.806;9.140;2023-04-01T18:05:30;9.10;99.90
7498;DHT22;3790;48.806;9.140;2023-04-01T18:10:51;8.70;99.90
7498;DHT22;3790;48.806;9.140;2023-04-01T18:22:08;8.50;99.90
7498;DHT22;3790;48.806;9.140;2023-04-01T18:27:22;8.40;99.90
7498;DHT22;3790;48.806;9.140;2023-04-01T18:32:36;8.30;99.90
7498;DHT22;3790;48.806;9.140;2023-04-01T18:38:17;8.30;99.90
7498;DHT22;3790;48.806;9.140;2023-04-01T18:53:59;7.80;99.90
7498;DHT22;3790;48.806;9.140;2023-04-01T18:59:18;7.60;99.90
7498;DHT22;3790;48.806;9.140;2023-04-01T19:04:41;7.40;99.90
7498;DHT22;3790;48.806;9.140;2023-04-01T19:09:49;7.20;99.90
7498;DHT22;3790;48.806;9.140;2023-04-01T19:20:17;7.20;99.90
7498;DHT22;3790;48.806;9.140;2023-04-01T19:25:37;7.40;99.90
7498;DHT22;3790;48.806;9.140;2023-04-01T19:36:09;7.40;99.90
7498;DHT22;3790;48.806;9.140;2023-04-01T19:41:21;7.60;99.90
7498;DHT22;3790;48.806;9.140;2023-04-01T19:47:30;7.60;99.90
7498;DHT22;3790;48.806;9.140;2023-04-01T19:52:27;7.50;99.90
7498;DHT22;3790;48.806;9.140;2023-04-01T19:57:48;7.30;99.90
7498;DHT22;3790;48.806;9.140;2023-04-01T20:03:15;7.40;99.90
7498;DHT22;3790;48.806;9.140;2023-04-01T20:08:37;7.70;99.90
7498;DHT22;3790;48.806;9.140;2023-04-01T20:13:48;8.00;99.90
7498;DHT22;3790;48.806;9.140;2023-04-01T20:18:58;8.20;99.90
7498;DHT22;3790;48.806;9.140;2023-04-01T20:24:21;8.30;99.90
7498;DHT22;3790;48.806;9.140;2023-04-01T20:30:12;8.40;99.90
7498;DHT22;3790;48.806;9.140;2023-04-01T20:41:12;8.50;99.90
7498;DHT22;3790;48.806;9.140;2023-04-01T21:29:58;8.40;99.90
7498;DHT22;3790;48.806;9.140;2023-04-01T21:40:44;8.20;99.90
7498;DHT22;3790;48.806;9.140;2023-04-01T21:46:16;8.20;99.90
7498;DHT22;3790;48.806;9.140;2023-04-01T22:13:39;7.80;99.90
7498;DHT22;3790;48.806;9.140;2023-04-01T22:18:55;7.70;99.90
7498;DHT22;3790;48.806;9.140;2023-04-01T22:29:15;8.00;99.90
7498;DHT22;3790;48.806;9.140;2023-04-01T22:34:30;8.10;99.90
7498;DHT22;3790;48.806;9.140;2023-04-01T22:45:41;8.30;99.90
7498;DHT22;3790;48.806;9.140;2023-04-01T22:55:57;8.30;99.90
7498;DHT22;3790;48.806;9.140;2023-04-01T23:01:06;8.20;99.90
7498;DHT22;3790;48.806;9.140;2023-04-01T23:06:15;8.20;99.90
7498;DHT22;3790;48.806;9.140;2023-04-01T23:11:28;8.10;99.90
7498;DHT22;3790;48.806;9.140;2023-04-01T23:16:39;8.10;99.90
7498;DHT22;3790;48.806;9.140;2023-04-01T23:21:50;8.10;99.90
7498;DHT22;3790;48.806;9.140;2023-04-01T23:27:01;8.00;99.90
7498;DHT22;3790;48.806;9.140;2023-04-01T23:32:03;8.00;99.90
7498;DHT22;3790;48.806;9.140;2023-04-01T23:37:14;8.00;99.90
7498;DHT22;3790;48.806;9.140;2023-04-01T23:42:40;8.00;99.90
7498;DHT22;3790;48.806;9.140;2023-04-01T23:47:41;8.00;99.90
7498;DHT22;3790;48.806;9.140;2023-04-01T23:52:46;7.90;99.90
